Time;durP1;ratioP1;P1;durP2;ratioP2;P2;SDS_P1;SDS_P2;PMS_P1;PMS_P2;Temp;Humidity;BMP_temperature;BMP_pressure;BME280_temperature;BME280_humidity;BME280_pressure;Samples;Min_cycle;Max_cycle;Signal;HPM_P1;HPM_P2
2022/10/13 00:00:08;;;;;;;64.32;25.92;;;;;;;;;;5089941;28;20470;-57
2022/10/13 00:02:33;;;;;;;71.45;27.35;;;;;;;;;;5083362;28;20454;-57
2022/10/13 00:04:58;;;;;;;56.25;24.13;;;;;;;;;;5090665;28;20320;-57
2022/10/13 00:07:23;;;;;;;58.10;24.55;;;;;;;;;;5096390;28;20020;-57
2022/10/13 00:09:49;;;;;;;53.38;22.75;;;;;;;;;;5089951;28;20100;-57
2022/10/13 00:12:15;;;;;;;58.35;24.55;;;;;;;;;;5081847;28;20043;-57
2022/10/13 00:14:40;;;;;;;49.92;22.10;;;;;;;;;;5084177;28;20074;-57
2022/10/13 00:17:06;;;;;;;49.22;22.13;;;;;;;;;;5088608;28;20020;-57
2022/10/13 00:19:32;;;;;;;47.40;22.70;;;;;;;;;;5088181;28;20073;-56
2022/10/13 00:21:57;;;;;;;49.83;23.98;;;;;;;;;;5093865;28;20797;-57
2022/10/13 00:24:22;;;;;;;72.50;24.75;;;;;;;;;;5091606;28;20027;-57
2022/10/13 00:26:49;;;;;;;58.80;23.58;;;;;;;;;;5087361;28;20024;-56
2022/10/13 00:29:14;;;;;;;58.97;23.45;;;;;;;;;;5088186;28;20020;-56
2022/10/13 00:31:39;;;;;;;62.25;24.20;;;;;;;;;;5089117;28;20413;-55
2022/10/13 00:34:04;;;;;;;60.30;23.70;;;;;;;;;;5083568;28;20375;-57
2022/10/13 00:36:30;;;;;;;50.38;19.38;;;;;;;;;;5092300;28;20111;-57
2022/10/13 00:38:55;;;;;;;49.65;20.38;;;;;;;;;;5084443;28;20012;-57
2022/10/13 00:41:20;;;;;;;62.92;24.38;;;;;;;;;;5084478;28;20027;-56
2022/10/13 00:43:46;;;;;;;55.85;22.88;;;;;;;;;;5080836;28;20016;-56
2022/10/13 00:46:11;;;;;;;49.28;21.77;;;;;;;;;;5100857;28;20030;-55
2022/10/13 00:48:36;;;;;;;66.00;24.52;;;;;;;;;;5089370;28;20045;-55
2022/10/13 00:51:01;;;;;;;57.30;22.85;;;;;;;;;;5082359;28;20032;-55
2022/10/13 00:53:28;;;;;;;58.35;22.98;;;;;;;;;;5082339;28;20058;-56
2022/10/13 00:55:53;;;;;;;68.18;27.42;;;;;;;;;;5086048;28;20016;-56
2022/10/13 00:58:18;;;;;;;70.85;26.25;;;;;;;;;;5088616;28;20077;-56
2022/10/13 01:00:44;;;;;;;69.07;25.88;;;;;;;;;;5078618;28;20098;-55
2022/10/13 01:03:10;;;;;;;69.30;24.92;;;;;;;;;;5092394;28;20357;-55
2022/10/13 01:05:35;;;;;;;59.75;23.77;;;;;;;;;;5091447;28;20415;-56
2022/10/13 01:08:00;;;;;;;65.20;24.50;;;;;;;;;;5089826;28;20040;-56
2022/10/13 01:10:28;;;;;;;58.15;23.33;;;;;;;;;;5095960;28;20012;-56
2022/10/13 01:13:20;;;;;;;58.60;23.30;;;;;;;;;;5086837;28;20354;-56
2022/10/13 01:16:05;;;;;;;35.83;15.30;;;;;;;;;;5088854;28;20043;-55
2022/10/13 01:18:45;;;;;;;54.22;21.48;;;;;;;;;;5071446;28;20105;-55
2022/10/13 01:21:37;;;;;;;36.30;16.23;;;;;;;;;;5088353;28;20036;-56
2022/10/13 01:24:08;;;;;;;53.30;21.98;;;;;;;;;;5079418;28;20032;-55
2022/10/13 01:26:53;;;;;;;50.67;20.77;;;;;;;;;;5084017;28;20035;-57
2022/10/13 01:29:21;;;;;;;44.90;18.90;;;;;;;;;;5079185;28;20039;-56
2022/10/13 01:32:01;;;;;;;52.75;21.90;;;;;;;;;;5089731;28;20042;-56
2022/10/13 01:34:31;;;;;;;45.50;18.77;;;;;;;;;;5084063;28;20012;-56
2022/10/13 01:37:16;;;;;;;46.88;20.30;;;;;;;;;;5090800;28;20024;-56
2022/10/13 01:39:47;;;;;;;57.60;21.52;;;;;;;;;;5087394;28;20025;-56
2022/10/13 01:42:16;;;;;;;55.80;22.52;;;;;;;;;;5097577;28;20429;-55
2022/10/13 01:44:47;;;;;;;56.53;22.77;;;;;;;;;;5080415;28;20095;-56
2022/10/13 01:47:12;;;;;;;51.63;20.73;;;;;;;;;;5091949;28;20306;-56
2022/10/13 01:49:37;;;;;;;50.90;21.70;;;;;;;;;;5086205;28;20425;-56
2022/10/13 01:52:06;;;;;;;35.95;17.05;;;;;;;;;;5091458;28;20092;-56
2022/10/13 01:54:32;;;;;;;47.60;18.40;;;;;;;;;;5086533;28;20186;-56
2022/10/13 01:56:57;;;;;;;57.20;22.90;;;;;;;;;;5084962;28;20404;-56
2022/10/13 01:59:23;;;;;;;54.75;21.33;;;;;;;;;;5094484;28;20046;-55
2022/10/13 02:01:52;;;;;;;49.88;18.05;;;;;;;;;;5088586;28;20039;-56
2022/10/13 02:04:36;;;;;;;53.75;21.00;;;;;;;;;;5077113;28;20044;-55
2022/10/13 02:07:08;;;;;;;61.08;22.80;;;;;;;;;;5088680;28;20406;-55
2022/10/13 02:09:42;;;;;;;58.30;22.80;;;;;;;;;;5097373;28;20445;-55
2022/10/13 02:12:09;;;;;;;60.05;23.63;;;;;;;;;;5089248;28;20039;-56
2022/10/13 02:14:35;;;;;;;55.33;21.08;;;;;;;;;;5088378;28;20031;-57
2022/10/13 02:17:01;;;;;;;51.95;19.58;;;;;;;;;;5089321;28;20030;-56
2022/10/13 02:19:27;;;;;;;56.10;19.50;;;;;;;;;;5086528;28;20048;-56
2022/10/13 02:21:52;;;;;;;61.70;23.33;;;;;;;;;;5080340;28;20427;-56
2022/10/13 02:24:17;;;;;;;63.42;23.23;;;;;;;;;;5096198;28;20034;-56
2022/10/13 02:26:42;;;;;;;61.50;20.38;;;;;;;;;;5076607;28;20383;-55
2022/10/13 02:29:14;;;;;;;49.97;20.80;;;;;;;;;;5085969;28;20024;-56
2022/10/13 02:31:40;;;;;;;59.25;25.30;;;;;;;;;;5082803;28;20035;-56
2022/10/13 02:34:05;;;;;;;74.55;28.73;;;;;;;;;;5090356;28;20043;-57
2022/10/13 02:36:31;;;;;;;41.00;16.60;;;;;;;;;;5091573;28;20169;-55
2022/10/13 02:38:56;;;;;;;62.08;24.00;;;;;;;;;;5093838;28;20024;-56
2022/10/13 02:41:21;;;;;;;58.38;22.60;;;;;;;;;;5099687;28;20028;-55
2022/10/13 02:43:46;;;;;;;62.40;24.33;;;;;;;;;;5089689;28;20016;-55
2022/10/13 02:46:12;;;;;;;60.75;24.90;;;;;;;;;;5090326;28;20035;-56
2022/10/13 02:48:37;;;;;;;53.55;21.75;;;;;;;;;;5091433;28;20025;-57
2022/10/13 02:51:02;;;;;;;54.00;22.35;;;;;;;;;;5093935;28;20119;-56
2022/10/13 02:53:27;;;;;;;54.42;21.65;;;;;;;;;;5084569;28;20056;-57
2022/10/13 02:55:53;;;;;;;56.53;22.95;;;;;;;;;;5093595;28;20016;-56
2022/10/13 02:58:18;;;;;;;42.60;19.58;;;;;;;;;;5097781;28;20123;-56
2022/10/13 03:00:43;;;;;;;46.28;20.65;;;;;;;;;;5082266;28;20747;-56
2022/10/13 03:03:09;;;;;;;46.08;18.92;;;;;;;;;;5085637;28;20032;-56
2022/10/13 03:05:35;;;;;;;42.63;18.65;;;;;;;;;;5076092;28;20059;-56
2022/10/13 03:08:00;;;;;;;36.25;17.90;;;;;;;;;;5090963;28;20021;-56
2022/10/13 03:10:25;;;;;;;36.40;16.42;;;;;;;;;;5098473;27;20038;-56
2022/10/13 03:12:51;;;;;;;39.05;18.33;;;;;;;;;;5084185;28;20128;-57
2022/10/13 03:15:16;;;;;;;37.92;17.33;;;;;;;;;;5098876;27;20023;-56
2022/10/13 03:17:41;;;;;;;37.65;17.85;;;;;;;;;;5087906;28;20099;-56
2022/10/13 03:20:07;;;;;;;39.72;16.17;;;;;;;;;;5093642;28;20062;-57
2022/10/13 03:22:32;;;;;;;34.42;16.23;;;;;;;;;;5090050;28;20374;-55
2022/10/13 03:24:58;;;;;;;38.08;17.48;;;;;;;;;;5087128;28;20016;-57
2022/10/13 03:27:23;;;;;;;39.65;17.17;;;;;;;;;;5086898;28;20486;-56
2022/10/13 03:29:48;;;;;;;35.05;17.20;;;;;;;;;;5096249;28;20073;-56
2022/10/13 03:32:13;;;;;;;40.50;17.83;;;;;;;;;;5092651;28;20035;-57
2022/10/13 03:34:39;;;;;;;34.35;16.67;;;;;;;;;;5096754;28;20020;-56
2022/10/13 03:37:05;;;;;;;33.63;16.30;;;;;;;;;;5092030;28;20685;-56
2022/10/13 03:39:30;;;;;;;33.22;15.68;;;;;;;;;;5088135;28;20336;-56
2022/10/13 03:41:55;;;;;;;38.47;18.17;;;;;;;;;;5086563;28;20024;-56
2022/10/13 03:44:20;;;;;;;37.30;18.65;;;;;;;;;;5091392;28;20380;-57
2022/10/13 03:46:46;;;;;;;33.47;16.42;;;;;;;;;;5088844;28;20446;-56
2022/10/13 03:49:11;;;;;;;38.53;17.17;;;;;;;;;;5092312;28;20015;-56
2022/10/13 03:51:36;;;;;;;37.78;17.52;;;;;;;;;;5088462;28;20122;-56
2022/10/13 03:54:01;;;;;;;36.88;17.77;;;;;;;;;;5094687;28;20047;-56
2022/10/13 03:56:27;;;;;;;38.58;17.20;;;;;;;;;;5085078;28;20644;-56
2022/10/13 03:58:56;;;;;;;33.13;14.77;;;;;;;;;;5090881;28;20034;-55
2022/10/13 04:01:21;;;;;;;42.20;19.15;;;;;;;;;;5086055;28;20051;-57
2022/10/13 04:03:47;;;;;;;44.92;18.65;;;;;;;;;;5083832;28;20058;-56
2022/10/13 04:06:13;;;;;;;40.88;17.83;;;;;;;;;;5092395;28;20012;-56
2022/10/13 04:08:38;;;;;;;38.08;18.20;;;;;;;;;;5095160;28;20105;-55
2022/10/13 04:11:04;;;;;;;39.85;18.95;;;;;;;;;;5090478;28;20012;-57
2022/10/13 04:13:29;;;;;;;44.50;18.60;;;;;;;;;;5093108;28;20027;-57
2022/10/13 04:15:54;;;;;;;48.53;19.60;;;;;;;;;;5091820;28;20066;-55
2022/10/13 04:18:20;;;;;;;44.72;20.98;;;;;;;;;;5086026;28;20020;-55
2022/10/13 04:20:45;;;;;;;64.55;26.02;;;;;;;;;;5082627;28;20027;-56
2022/10/13 04:23:10;;;;;;;50.33;21.02;;;;;;;;;;5086175;28;20461;-56
2022/10/13 04:25:36;;;;;;;57.97;22.98;;;;;;;;;;5088987;28;20027;-55
2022/10/13 04:28:02;;;;;;;54.53;22.73;;;;;;;;;;5080359;28;20223;-56
2022/10/13 04:30:27;;;;;;;50.83;22.38;;;;;;;;;;5087472;28;20023;-56
2022/10/13 04:32:52;;;;;;;59.15;23.13;;;;;;;;;;5089117;28;20474;-56
2022/10/13 04:35:17;;;;;;;44.47;22.08;;;;;;;;;;5089305;28;20662;-55
2022/10/13 04:37:43;;;;;;;50.67;23.10;;;;;;;;;;5091356;28;20030;-56
2022/10/13 04:40:08;;;;;;;53.58;20.65;;;;;;;;;;5091798;28;20057;-55
2022/10/13 04:42:33;;;;;;;45.20;20.42;;;;;;;;;;5091672;28;20368;-56
2022/10/13 04:44:58;;;;;;;50.88;22.00;;;;;;;;;;5085692;28;20077;-58
2022/10/13 04:47:24;;;;;;;45.28;20.88;;;;;;;;;;5090020;28;20020;-57
2022/10/13 04:49:49;;;;;;;39.35;18.77;;;;;;;;;;5077996;28;20099;-55
2022/10/13 04:52:14;;;;;;;40.75;19.80;;;;;;;;;;5089358;28;20027;-56
2022/10/13 04:54:41;;;;;;;37.28;18.10;;;;;;;;;;5090605;28;20056;-58
2022/10/13 04:57:06;;;;;;;42.60;19.23;;;;;;;;;;5088355;28;20024;-56
2022/10/13 04:59:31;;;;;;;41.13;18.13;;;;;;;;;;5084558;28;20027;-55
2022/10/13 05:01:56;;;;;;;37.47;18.80;;;;;;;;;;5091411;28;20031;-56
2022/10/13 05:04:22;;;;;;;39.17;18.48;;;;;;;;;;5078254;28;20051;-58
2022/10/13 05:06:47;;;;;;;33.75;17.35;;;;;;;;;;5091103;28;20024;-54
2022/10/13 05:09:14;;;;;;;43.08;19.55;;;;;;;;;;5088294;28;20111;-56
2022/10/13 05:11:39;;;;;;;34.45;17.65;;;;;;;;;;5093926;28;20024;-56
2022/10/13 05:14:04;;;;;;;36.30;16.98;;;;;;;;;;5087258;28;20036;-56
2022/10/13 05:16:30;;;;;;;36.63;18.08;;;;;;;;;;5091690;28;20468;-55
2022/10/13 05:18:55;;;;;;;33.20;18.30;;;;;;;;;;5086956;28;20517;-56
2022/10/13 05:21:21;;;;;;;38.92;18.40;;;;;;;;;;5086338;28;20013;-56
2022/10/13 05:23:46;;;;;;;41.90;17.63;;;;;;;;;;5087391;28;20036;-57
2022/10/13 05:26:13;;;;;;;42.05;18.45;;;;;;;;;;5083979;28;20019;-57
2022/10/13 05:28:38;;;;;;;38.95;18.45;;;;;;;;;;5095802;28;20020;-56
2022/10/13 05:31:20;;;;;;;43.90;18.95;;;;;;;;;;5084218;28;20036;-56
2022/10/13 05:33:45;;;;;;;35.70;17.58;;;;;;;;;;5084243;28;20121;-57
2022/10/13 05:36:11;;;;;;;33.67;17.90;;;;;;;;;;5084480;28;20106;-57
2022/10/13 05:38:37;;;;;;;38.53;17.45;;;;;;;;;;5091783;28;20031;-57
2022/10/13 05:41:06;;;;;;;39.70;19.20;;;;;;;;;;5086795;28;20008;-56
2022/10/13 05:43:31;;;;;;;43.17;19.95;;;;;;;;;;5080366;28;20085;-55
2022/10/13 05:45:57;;;;;;;34.13;16.98;;;;;;;;;;5086793;28;20016;-57
2022/10/13 05:48:22;;;;;;;40.17;18.63;;;;;;;;;;5102332;28;20031;-57
2022/10/13 05:50:47;;;;;;;39.28;17.70;;;;;;;;;;5086717;28;20021;-57
2022/10/13 05:53:12;;;;;;;38.63;19.20;;;;;;;;;;5092902;28;20094;-57
2022/10/13 05:55:38;;;;;;;39.97;19.92;;;;;;;;;;5090390;28;20533;-57
2022/10/13 05:58:03;;;;;;;37.55;17.65;;;;;;;;;;5081050;28;20433;-57
2022/10/13 06:00:28;;;;;;;41.15;19.25;;;;;;;;;;5085165;28;20020;-56
2022/10/13 06:03:12;;;;;;;44.88;20.27;;;;;;;;;;5089154;28;20021;-58
2022/10/13 06:05:37;;;;;;;41.13;18.73;;;;;;;;;;5081460;28;20126;-56
2022/10/13 06:08:02;;;;;;;47.70;19.75;;;;;;;;;;5099320;28;20103;-56
2022/10/13 06:10:28;;;;;;;46.40;19.58;;;;;;;;;;5091247;28;20024;-57
2022/10/13 06:12:53;;;;;;;43.92;20.00;;;;;;;;;;5088448;28;20071;-56
2022/10/13 06:15:18;;;;;;;42.28;20.05;;;;;;;;;;5096794;28;20023;-57
2022/10/13 06:17:43;;;;;;;45.67;22.23;;;;;;;;;;5091351;28;20044;-59
2022/10/13 06:20:09;;;;;;;46.90;22.17;;;;;;;;;;5092437;28;20032;-57
2022/10/13 06:22:36;;;;;;;51.95;22.88;;;;;;;;;;5084797;28;20488;-56
2022/10/13 06:25:01;;;;;;;47.92;21.55;;;;;;;;;;5100257;28;20020;-58
2022/10/13 06:27:26;;;;;;;47.20;23.30;;;;;;;;;;5088135;28;20022;-58
2022/10/13 06:29:52;;;;;;;49.72;21.95;;;;;;;;;;5091992;28;20050;-55
2022/10/13 06:32:17;;;;;;;43.40;21.15;;;;;;;;;;5079801;28;20115;-56
2022/10/13 06:34:42;;;;;;;46.05;21.55;;;;;;;;;;5083906;28;20040;-55
2022/10/13 06:37:07;;;;;;;43.65;22.65;;;;;;;;;;5092503;28;20032;-56
2022/10/13 06:39:33;;;;;;;43.08;22.02;;;;;;;;;;5095826;28;20440;-56
2022/10/13 06:41:58;;;;;;;52.50;23.88;;;;;;;;;;5081629;28;20024;-58
2022/10/13 06:44:23;;;;;;;45.30;21.27;;;;;;;;;;5088666;28;20019;-56
2022/10/13 06:46:49;;;;;;;48.83;23.70;;;;;;;;;;5094975;28;20062;-57
2022/10/13 06:49:14;;;;;;;42.63;21.98;;;;;;;;;;5097987;28;20011;-56
2022/10/13 06:51:39;;;;;;;46.72;24.50;;;;;;;;;;5086580;28;20035;-57
2022/10/13 06:54:04;;;;;;;47.35;24.92;;;;;;;;;;5091070;28;20409;-56
2022/10/13 06:56:30;;;;;;;43.45;23.27;;;;;;;;;;5085421;28;20029;-57
2022/10/13 06:58:55;;;;;;;37.90;21.02;;;;;;;;;;5090579;28;20020;-57
2022/10/13 07:01:20;;;;;;;44.38;21.00;;;;;;;;;;5092915;28;20054;-56
2022/10/13 07:03:49;;;;;;;39.75;19.70;;;;;;;;;;5094323;28;20008;-57
2022/10/13 07:06:14;;;;;;;45.03;20.17;;;;;;;;;;5101737;28;20030;-57
2022/10/13 07:08:39;;;;;;;31.50;16.23;;;;;;;;;;5091768;28;20023;-57
2022/10/13 07:11:06;;;;;;;38.75;17.98;;;;;;;;;;5088936;28;20475;-56
2022/10/13 07:13:31;;;;;;;35.78;16.80;;;;;;;;;;5091937;28;20022;-57
2022/10/13 07:15:56;;;;;;;39.60;17.95;;;;;;;;;;5095925;28;20525;-57
2022/10/13 07:18:22;;;;;;;33.35;16.75;;;;;;;;;;5095451;28;20019;-57
2022/10/13 07:20:47;;;;;;;37.70;16.90;;;;;;;;;;5091680;28;20008;-56
2022/10/13 07:23:12;;;;;;;42.10;16.90;;;;;;;;;;5088775;28;20027;-57
2022/10/13 07:25:37;;;;;;;33.40;16.40;;;;;;;;;;5088705;28;20027;-57
2022/10/13 07:28:03;;;;;;;32.90;16.98;;;;;;;;;;5092932;28;20016;-57
2022/10/13 07:30:28;;;;;;;30.60;16.27;;;;;;;;;;5091807;28;20020;-57
2022/10/13 07:32:53;;;;;;;32.85;16.70;;;;;;;;;;5088581;28;20028;-57
2022/10/13 07:35:18;;;;;;;31.23;15.98;;;;;;;;;;5093219;28;20122;-56
2022/10/13 07:37:44;;;;;;;31.15;15.65;;;;;;;;;;5091497;28;20125;-57
2022/10/13 07:40:09;;;;;;;34.90;18.50;;;;;;;;;;5093646;28;20069;-57
2022/10/13 07:42:34;;;;;;;32.25;16.92;;;;;;;;;;5082414;28;20146;-57
2022/10/13 07:45:00;;;;;;;35.85;17.52;;;;;;;;;;5082562;28;20036;-56
2022/10/13 07:47:25;;;;;;;33.65;16.42;;;;;;;;;;5087646;28;20023;-56
2022/10/13 07:49:50;;;;;;;36.95;17.20;;;;;;;;;;5093909;28;20629;-57
2022/10/13 07:52:16;;;;;;;33.35;16.73;;;;;;;;;;5088559;28;20107;-56
2022/10/13 07:54:41;;;;;;;31.70;16.70;;;;;;;;;;5089632;28;20027;-55
2022/10/13 07:57:06;;;;;;;27.92;16.30;;;;;;;;;;5089066;28;20024;-57
2022/10/13 07:59:32;;;;;;;32.28;17.77;;;;;;;;;;5088907;28;20047;-57
2022/10/13 08:01:59;;;;;;;34.45;18.38;;;;;;;;;;5087230;28;20055;-57
2022/10/13 08:04:27;;;;;;;33.70;18.25;;;;;;;;;;5086036;28;20078;-57
2022/10/13 08:06:52;;;;;;;33.63;17.45;;;;;;;;;;5085418;28;20055;-57
2022/10/13 08:09:18;;;;;;;32.25;17.25;;;;;;;;;;5090368;28;20434;-56
2022/10/13 08:11:43;;;;;;;34.20;17.23;;;;;;;;;;5089085;28;20075;-57
2022/10/13 08:14:09;;;;;;;39.15;17.50;;;;;;;;;;5091292;28;20596;-57
2022/10/13 08:16:34;;;;;;;34.92;16.90;;;;;;;;;;5094863;28;20110;-57
2022/10/13 08:18:59;;;;;;;30.00;16.67;;;;;;;;;;5099264;28;20673;-56
2022/10/13 08:21:25;;;;;;;34.60;16.98;;;;;;;;;;5114030;27;20032;-56
2022/10/13 08:23:50;;;;;;;30.25;17.13;;;;;;;;;;5076754;28;20116;-56
2022/10/13 08:26:17;;;;;;;30.98;17.17;;;;;;;;;;5088979;28;20031;-56
2022/10/13 08:28:42;;;;;;;29.60;15.98;;;;;;;;;;5087561;28;20590;-57
2022/10/13 08:31:10;;;;;;;41.70;17.20;;;;;;;;;;5095745;28;20081;-58
2022/10/13 08:33:35;;;;;;;26.88;15.32;;;;;;;;;;5085363;28;20286;-57
2022/10/13 08:36:01;;;;;;;32.08;16.42;;;;;;;;;;5083290;28;20482;-57
2022/10/13 08:38:26;;;;;;;26.85;14.25;;;;;;;;;;5092657;28;20016;-58
2022/10/13 08:40:52;;;;;;;32.65;15.50;;;;;;;;;;5081310;28;20008;-55
2022/10/13 08:43:17;;;;;;;32.35;16.63;;;;;;;;;;5086265;28;20089;-54
2022/10/13 08:45:43;;;;;;;30.27;15.23;;;;;;;;;;5096973;28;20024;-57
2022/10/13 08:48:16;;;;;;;39.00;15.48;;;;;;;;;;5090319;28;20020;-57
2022/10/13 08:50:41;;;;;;;33.25;16.33;;;;;;;;;;5083915;28;20036;-58
2022/10/13 08:53:10;;;;;;;27.90;14.57;;;;;;;;;;5082778;28;20036;-58
2022/10/13 08:55:40;;;;;;;31.13;16.13;;;;;;;;;;5088717;28;20020;-57
2022/10/13 08:58:11;;;;;;;34.78;14.98;;;;;;;;;;5084480;28;20052;-56
2022/10/13 09:00:36;;;;;;;30.30;13.90;;;;;;;;;;5089415;28;20030;-60
2022/10/13 09:03:28;;;;;;;27.67;13.90;;;;;;;;;;5086983;28;20027;-56
2022/10/13 09:05:53;;;;;;;26.23;13.02;;;;;;;;;;5080690;28;20164;-57
2022/10/13 09:08:18;;;;;;;26.05;12.30;;;;;;;;;;5094411;28;20147;-59
2022/10/13 09:10:47;;;;;;;23.73;11.63;;;;;;;;;;5091903;28;20046;-57
2022/10/13 09:13:13;;;;;;;26.08;11.88;;;;;;;;;;5089430;28;20027;-56
2022/10/13 09:15:42;;;;;;;26.48;12.48;;;;;;;;;;5093907;28;20555;-55
2022/10/13 09:18:08;;;;;;;26.08;11.93;;;;;;;;;;5090141;28;20024;-56
2022/10/13 09:20:33;;;;;;;21.52;11.25;;;;;;;;;;5093542;28;20037;-56
2022/10/13 09:22:59;;;;;;;29.33;11.10;;;;;;;;;;5072042;28;20031;-56
2022/10/13 09:25:25;;;;;;;24.77;11.65;;;;;;;;;;5087824;28;20036;-56
2022/10/13 09:27:51;;;;;;;23.00;11.80;;;;;;;;;;5088606;28;20013;-55
2022/10/13 09:30:27;;;;;;;23.60;10.40;;;;;;;;;;5085222;28;20023;-56
2022/10/13 09:33:02;;;;;;;21.48;11.10;;;;;;;;;;5091662;28;20100;-56
2022/10/13 09:35:27;;;;;;;24.08;10.90;;;;;;;;;;5094606;28;20386;-58
2022/10/13 09:38:02;;;;;;;25.67;10.73;;;;;;;;;;5088114;28;20024;-56
2022/10/13 09:40:31;;;;;;;18.42;10.30;;;;;;;;;;5084226;28;20399;-56
2022/10/13 09:42:57;;;;;;;19.55;9.82;;;;;;;;;;5097539;28;20024;-56
2022/10/13 09:45:23;;;;;;;29.73;11.02;;;;;;;;;;5091316;28;20020;-56
2022/10/13 09:48:09;;;;;;;21.52;10.02;;;;;;;;;;5089877;28;20079;-55
2022/10/13 09:50:34;;;;;;;18.45;9.93;;;;;;;;;;5085947;28;20035;-57
2022/10/13 09:53:18;;;;;;;24.95;10.90;;;;;;;;;;5091307;28;20036;-56
2022/10/13 09:55:47;;;;;;;19.48;10.07;;;;;;;;;;5092164;28;20070;-56
2022/10/13 09:58:20;;;;;;;23.98;11.23;;;;;;;;;;5096406;28;20020;-57
2022/10/13 10:00:47;;;;;;;22.42;10.23;;;;;;;;;;5090820;28;20024;-57
2022/10/13 10:03:22;;;;;;;20.70;10.35;;;;;;;;;;5092385;28;20185;-56
2022/10/13 10:05:52;;;;;;;23.70;10.23;;;;;;;;;;5089545;28;20087;-56
2022/10/13 10:08:23;;;;;;;19.55;10.02;;;;;;;;;;5092045;28;20393;-55
2022/10/13 10:10:48;;;;;;;22.05;10.55;;;;;;;;;;5082829;28;20074;-56
2022/10/13 10:13:13;;;;;;;25.65;10.57;;;;;;;;;;5091890;28;20577;-56
2022/10/13 10:15:44;;;;;;;18.30;10.82;;;;;;;;;;5097273;28;20050;-55
2022/10/13 10:18:13;;;;;;;23.58;10.80;;;;;;;;;;5071334;28;20029;-56
2022/10/13 10:20:50;;;;;;;31.90;11.10;;;;;;;;;;5083070;28;20416;-56
2022/10/13 10:23:19;;;;;;;22.50;11.63;;;;;;;;;;5089799;28;20283;-55
2022/10/13 10:25:45;;;;;;;18.58;10.75;;;;;;;;;;5091921;28;20501;-56
2022/10/13 10:28:29;;;;;;;18.40;10.73;;;;;;;;;;5079578;28;20107;-56
2022/10/13 10:31:02;;;;;;;22.00;11.02;;;;;;;;;;5089320;28;20154;-55
2022/10/13 10:33:32;;;;;;;21.80;10.98;;;;;;;;;;5099799;28;20036;-56
2022/10/13 10:35:57;;;;;;;;;;;;;;;;;;5092702;28;20523;-55
2022/10/13 10:38:41;;;;;;;19.95;10.90;;;;;;;;;;5091015;28;19908;-56
2022/10/13 10:41:15;;;;;;;20.25;11.82;;;;;;;;;;5089878;28;20028;-55
2022/10/13 10:43:50;;;;;;;23.45;12.02;;;;;;;;;;5088115;28;20024;-56
2022/10/13 10:46:26;;;;;;;24.45;11.85;;;;;;;;;;5090684;28;20019;-56
2022/10/13 10:48:54;;;;;;;28.35;12.20;;;;;;;;;;5086181;28;20102;-55
2022/10/13 10:51:19;;;;;;;20.88;12.43;;;;;;;;;;5089977;28;20491;-55
2022/10/13 10:53:44;;;;;;;24.17;12.00;;;;;;;;;;5086300;28;20115;-55
2022/10/13 10:56:16;;;;;;;25.05;11.63;;;;;;;;;;5095113;28;20023;-58
2022/10/13 10:58:47;;;;;;;20.15;11.00;;;;;;;;;;5092162;28;20128;-56
2022/10/13 11:01:30;;;;;;;22.45;11.18;;;;;;;;;;5094840;28;20008;-56
2022/10/13 11:04:14;;;;;;;23.00;10.93;;;;;;;;;;5082993;28;20082;-58
2022/10/13 11:06:39;;;;;;;24.85;12.00;;;;;;;;;;5084839;28;20024;-55
2022/10/13 11:09:05;;;;;;;25.13;11.00;;;;;;;;;;5088667;28;20032;-57
2022/10/13 11:11:31;;;;;;;20.42;9.93;;;;;;;;;;5094048;28;20024;-57
2022/10/13 11:14:05;;;;;;;30.20;10.70;;;;;;;;;;5089876;28;20073;-58
2022/10/13 11:16:31;;;;;;;22.30;11.10;;;;;;;;;;5085194;28;20377;-57
2022/10/13 11:19:06;;;;;;;22.98;11.13;;;;;;;;;;5089931;28;20024;-55
2022/10/13 11:22:04;;;;;;;23.42;11.02;;;;;;;;;;5090573;28;20105;-55
2022/10/13 11:24:32;;;;;;;23.40;11.13;;;;;;;;;;5068468;28;20181;-55
2022/10/13 11:27:16;;;;;;;24.45;11.52;;;;;;;;;;5094750;28;20011;-56
2022/10/13 11:32:31;;;;;;;22.17;11.02;;;;;;;;;;5093493;28;20039;-55
2022/10/13 11:35:06;;;;;;;30.10;11.48;;;;;;;;;;5084319;28;20039;-55
2022/10/13 11:37:50;;;;;;;25.27;11.77;;;;;;;;;;5086985;28;20125;-55
2022/10/13 11:40:34;;;;;;;20.88;11.10;;;;;;;;;;5088335;28;20022;-57
2022/10/13 11:42:59;;;;;;;26.02;11.70;;;;;;;;;;5087593;28;20107;-56
2022/10/13 11:45:35;;;;;;;24.20;11.20;;;;;;;;;;5092227;28;20023;-56
2022/10/13 11:48:06;;;;;;;23.23;10.82;;;;;;;;;;5086585;28;20382;-56
2022/10/13 11:50:34;;;;;;;23.10;10.95;;;;;;;;;;5091301;28;20433;-55
2022/10/13 11:53:00;;;;;;;25.27;10.73;;;;;;;;;;5092905;28;20478;-57
2022/10/13 11:55:28;;;;;;;20.67;10.40;;;;;;;;;;5090273;28;20026;-56
2022/10/13 11:58:22;;;;;;;27.48;10.50;;;;;;;;;;5086395;28;20051;-56
2022/10/13 12:00:49;;;;;;;20.20;10.48;;;;;;;;;;5068537;28;20024;-54
2022/10/13 12:03:25;;;;;;;20.38;10.40;;;;;;;;;;5093018;28;20092;-56
2022/10/13 12:05:50;;;;;;;23.00;11.30;;;;;;;;;;5092906;28;20051;-56
2022/10/13 12:08:16;;;;;;;21.52;11.43;;;;;;;;;;5092727;28;20038;-57
2022/10/13 12:10:42;;;;;;;26.08;10.75;;;;;;;;;;5083644;28;20048;-56
2022/10/13 12:13:15;;;;;;;22.95;10.35;;;;;;;;;;5086988;28;20452;-56
2022/10/13 12:15:40;;;;;;;21.17;10.80;;;;;;;;;;5088946;28;20016;-57
2022/10/13 12:18:18;;;;;;;22.80;11.00;;;;;;;;;;5088467;28;20078;-56
2022/10/13 12:20:43;;;;;;;26.38;11.13;;;;;;;;;;5085164;28;20016;-56
2022/10/13 12:23:13;;;;;;;22.40;10.68;;;;;;;;;;5095172;28;20078;-56
2022/10/13 12:25:39;;;;;;;27.75;12.25;;;;;;;;;;5082256;28;20471;-56
2022/10/13 12:28:04;;;;;;;19.73;10.35;;;;;;;;;;5070134;28;20035;-55
2022/10/13 12:30:30;;;;;;;29.58;11.32;;;;;;;;;;5081486;28;20476;-58
2022/10/13 12:32:56;;;;;;;19.90;8.80;;;;;;;;;;5078878;28;20034;-55
2022/10/13 12:35:28;;;;;;;24.25;10.15;;;;;;;;;;5078667;28;20020;-54
2022/10/13 12:37:54;;;;;;;17.33;9.95;;;;;;;;;;5086191;28;20035;-56
2022/10/13 12:40:19;;;;;;;26.33;10.13;;;;;;;;;;5080798;28;20020;-56
2022/10/13 12:42:44;;;;;;;21.00;10.25;;;;;;;;;;5083146;28;20043;-56
2022/10/13 12:45:13;;;;;;;23.00;8.98;;;;;;;;;;5084142;28;20040;-56
2022/10/13 12:47:44;;;;;;;19.50;9.60;;;;;;;;;;5087936;28;20505;-56
2022/10/13 12:50:19;;;;;;;17.92;9.77;;;;;;;;;;5089826;28;20432;-57
2022/10/13 12:52:44;;;;;;;17.73;9.35;;;;;;;;;;5089788;28;20363;-58
2022/10/13 12:55:13;;;;;;;20.48;9.45;;;;;;;;;;5090225;28;20031;-55
2022/10/13 12:57:39;;;;;;;18.08;8.98;;;;;;;;;;5084722;28;20058;-57
2022/10/13 13:00:20;;;;;;;20.83;8.88;;;;;;;;;;5085283;28;20028;-57
2022/10/13 13:02:53;;;;;;;25.65;10.10;;;;;;;;;;5090303;28;20020;-55
2022/10/13 13:05:45;;;;;;;15.35;8.95;;;;;;;;;;5084345;28;20040;-55
2022/10/13 13:08:23;;;;;;;22.58;8.45;;;;;;;;;;5080493;28;20119;-58
2022/10/13 13:10:52;;;;;;;17.15;8.45;;;;;;;;;;5080401;28;20073;-57
2022/10/13 13:13:19;;;;;;;16.02;8.35;;;;;;;;;;5082000;28;20120;-57
2022/10/13 13:15:48;;;;;;;23.20;9.13;;;;;;;;;;5089287;28;20042;-57
2022/10/13 13:18:25;;;;;;;23.02;9.10;;;;;;;;;;5089415;28;20493;-55
2022/10/13 13:20:51;;;;;;;17.45;8.40;;;;;;;;;;5083689;28;20025;-55
2022/10/13 13:23:18;;;;;;;21.13;8.60;;;;;;;;;;5084139;28;20080;-55
2022/10/13 13:25:43;;;;;;;18.83;8.45;;;;;;;;;;5084388;28;20035;-56
2022/10/13 13:28:09;;;;;;;16.52;8.13;;;;;;;;;;5088569;28;20027;-54
2022/10/13 13:30:34;;;;;;;20.00;8.75;;;;;;;;;;5086129;28;20052;-56
2022/10/13 13:32:59;;;;;;;16.75;7.75;;;;;;;;;;5084780;28;20459;-55
2022/10/13 13:35:25;;;;;;;20.48;8.60;;;;;;;;;;5104173;28;20139;-57
2022/10/13 13:37:50;;;;;;;20.48;8.88;;;;;;;;;;5075325;28;20044;-55
2022/10/13 13:40:16;;;;;;;22.95;8.75;;;;;;;;;;5084270;28;20020;-57
2022/10/13 13:42:41;;;;;;;20.40;8.27;;;;;;;;;;5085594;28;20020;-55
2022/10/13 13:45:10;;;;;;;19.20;8.48;;;;;;;;;;5085464;28;20514;-55
2022/10/13 13:47:35;;;;;;;15.85;8.38;;;;;;;;;;5085944;28;20023;-56
2022/10/13 13:50:01;;;;;;;18.42;8.25;;;;;;;;;;5087330;28;20369;-56
2022/10/13 13:52:26;;;;;;;16.35;8.73;;;;;;;;;;5087779;28;20028;-56
2022/10/13 13:54:51;;;;;;;20.77;8.63;;;;;;;;;;5077846;28;20032;-56
2022/10/13 13:57:17;;;;;;;22.60;8.88;;;;;;;;;;5072633;28;20262;-56
2022/10/13 13:59:42;;;;;;;21.13;8.95;;;;;;;;;;5077445;28;20425;-56
2022/10/13 14:02:26;;;;;;;17.92;8.55;;;;;;;;;;5075870;28;20467;-57
2022/10/13 14:04:52;;;;;;;20.52;8.90;;;;;;;;;;5088265;28;20477;-56
2022/10/13 14:07:17;;;;;;;18.05;8.48;;;;;;;;;;5088339;28;20074;-57
2022/10/13 14:09:42;;;;;;;23.75;9.13;;;;;;;;;;5086507;28;20051;-55
2022/10/13 14:12:08;;;;;;;23.15;8.75;;;;;;;;;;5089003;28;20044;-63
2022/10/13 14:14:33;;;;;;;22.58;9.45;;;;;;;;;;5088613;28;20016;-57
2022/10/13 14:16:59;;;;;;;18.63;8.40;;;;;;;;;;5085483;28;20483;-57
2022/10/13 14:19:24;;;;;;;17.20;8.48;;;;;;;;;;5081692;28;20434;-56
2022/10/13 14:21:49;;;;;;;20.52;8.70;;;;;;;;;;5082930;28;20154;-56
2022/10/13 14:24:14;;;;;;;20.27;9.57;;;;;;;;;;5087248;28;20329;-56